createdAt,value
2017-08-16T00:01:28.843Z,85.00
2017-08-16T00:03:57.784Z,85.20
2017-08-16T00:06:27.197Z,85.40
2017-08-16T00:08:55.946Z,85.40
2017-08-16T00:11:24.263Z,85.60
2017-08-16T00:13:53.663Z,85.60
2017-08-16T00:16:22.894Z,85.60
2017-08-16T00:18:51.544Z,86.50
2017-08-16T00:21:20.399Z,85.60
2017-08-16T00:23:49.120Z,85.80
2017-08-16T00:26:18.390Z,86.90
2017-08-16T00:28:47.633Z,86.10
2017-08-16T00:31:17.685Z,86.40
2017-08-16T00:33:46.817Z,86.90
2017-08-16T00:36:15.106Z,86.90
2017-08-16T00:38:43.749Z,87.30
2017-08-16T00:41:13.709Z,88.20
2017-08-16T00:43:42.004Z,88.20
2017-08-16T00:46:10.332Z,88.60
2017-08-16T00:48:39.775Z,89.20
2017-08-16T00:51:08.382Z,89.10
2017-08-16T00:53:36.655Z,89.20
2017-08-16T00:56:05.150Z,89.50
2017-08-16T00:58:34.205Z,89.60
2017-08-16T01:01:03.342Z,89.80
2017-08-16T01:03:32.264Z,90.00
2017-08-16T01:06:01.408Z,90.20
2017-08-16T01:08:30.287Z,90.30
2017-08-16T01:10:59.500Z,90.60
2017-08-16T01:13:27.848Z,90.60
2017-08-16T01:15:56.457Z,90.70
2017-08-16T01:18:25.530Z,91.00
2017-08-16T01:20:53.813Z,91.00
2017-08-16T01:23:22.199Z,91.10
2017-08-16T01:25:50.941Z,91.30
2017-08-16T01:28:19.961Z,91.50
2017-08-16T01:30:48.644Z,91.70
2017-08-16T01:33:18.083Z,92.00
2017-08-16T01:35:46.871Z,92.20
2017-08-16T01:38:15.992Z,92.90
2017-08-16T01:40:44.596Z,92.50
2017-08-16T01:43:12.889Z,92.70
2017-08-16T01:45:41.955Z,92.80
2017-08-16T01:48:11.154Z,92.80
2017-08-16T01:50:39.751Z,93.00
2017-08-16T01:53:08.446Z,93.20
2017-08-16T01:55:37.591Z,93.40
2017-08-16T01:58:05.860Z,93.60
2017-08-16T02:00:34.186Z,93.90
2017-08-16T02:03:02.483Z,94.20
2017-08-16T02:05:31.771Z,94.50
2017-08-16T02:08:01.939Z,95.30
2017-08-16T02:10:31.281Z,95.20
2017-08-16T02:12:59.588Z,95.20
2017-08-16T02:15:27.937Z,95.30
2017-08-16T02:17:56.546Z,95.70
2017-08-16T02:20:24.841Z,96.10
2017-08-16T02:22:53.189Z,96.40
2017-08-16T02:25:21.482Z,96.80
2017-08-16T02:27:49.819Z,97.10
2017-08-16T02:30:19.215Z,97.90
2017-08-16T02:32:47.681Z,97.50
2017-08-16T02:35:15.995Z,97.90
2017-08-16T02:37:44.378Z,97.90
2017-08-16T02:40:12.708Z,98.50
2017-08-16T02:42:41.317Z,98.50
2017-08-16T02:45:09.605Z,98.80
2017-08-16T02:47:37.893Z,99.20
2017-08-16T02:50:06.240Z,99.50
2017-08-16T02:52:34.583Z,99.60
2017-08-16T02:55:03.960Z,99.70
2017-08-16T02:57:32.232Z,99.70
2017-08-16T03:00:00.505Z,99.90
2017-08-16T03:02:29.117Z,99.90
2017-08-16T03:04:57.413Z,99.90
2017-08-16T03:07:26.485Z,99.90
2017-08-16T03:09:54.769Z,99.90
2017-08-16T03:12:23.065Z,99.90
2017-08-16T03:14:51.643Z,99.90
2017-08-16T03:17:19.932Z,99.90
2017-08-16T03:19:48.955Z,99.90
2017-08-16T03:22:17.281Z,99.90
2017-08-16T03:24:45.594Z,99.90
2017-08-16T03:27:14.183Z,99.90
2017-08-16T03:29:43.494Z,99.90
2017-08-16T03:32:12.152Z,99.90
2017-08-16T03:34:40.437Z,99.90
2017-08-16T03:37:08.715Z,99.90
2017-08-16T03:39:37.305Z,99.90
2017-08-16T03:42:05.646Z,99.90
2017-08-16T03:44:35.385Z,99.90
2017-08-16T03:47:03.710Z,99.90
2017-08-16T03:49:31.990Z,99.90
2017-08-16T03:52:00.549Z,99.90
2017-08-16T03:54:28.849Z,99.90
2017-08-16T03:56:57.212Z,99.90
2017-08-16T03:59:25.493Z,99.90
2017-08-16T04:01:53.815Z,99.90
2017-08-16T04:04:22.435Z,99.90
2017-08-16T04:06:51.498Z,99.90
2017-08-16T04:09:20.618Z,99.90
2017-08-16T04:11:48.904Z,99.90
2017-08-16T04:14:17.201Z,99.90
2017-08-16T04:16:45.765Z,99.90
2017-08-16T04:19:14.834Z,99.90
2017-08-16T04:21:43.176Z,99.90
2017-08-16T04:24:12.295Z,99.90
2017-08-16T04:26:42.140Z,99.90
2017-08-16T04:29:10.736Z,99.90
2017-08-16T04:31:40.195Z,99.90
2017-08-16T04:34:08.478Z,99.90
2017-08-16T04:36:36.806Z,99.90
2017-08-16T04:39:05.094Z,99.90
2017-08-16T04:41:34.013Z,99.90
2017-08-16T04:44:03.090Z,99.90
2017-08-16T04:46:31.424Z,99.90
2017-08-16T04:48:59.710Z,99.90
2017-08-16T04:51:28.019Z,99.90
2017-08-16T04:53:57.103Z,99.90
2017-08-16T04:56:25.397Z,99.90
2017-08-16T04:58:53.715Z,99.90
2017-08-16T05:01:23.081Z,99.90
2017-08-16T05:03:51.377Z,99.90
2017-08-16T05:06:19.714Z,99.90
2017-08-16T05:08:49.178Z,99.90
2017-08-16T05:11:18.649Z,99.90
2017-08-16T05:13:47.240Z,99.90
2017-08-16T05:16:15.541Z,99.90
2017-08-16T05:18:43.923Z,99.90
2017-08-16T05:21:12.476Z,99.90
2017-08-16T05:23:40.802Z,99.90
2017-08-16T05:26:09.086Z,99.90
2017-08-16T05:28:38.199Z,99.90
2017-08-16T05:33:37.093Z,99.90
2017-08-16T05:36:06.182Z,99.90
2017-08-16T05:38:34.451Z,99.90
2017-08-16T05:41:03.428Z,99.90
2017-08-16T05:43:31.778Z,99.90
2017-08-16T05:46:01.136Z,99.90
2017-08-16T05:48:29.710Z,99.90
2017-08-16T05:50:58.132Z,99.90
2017-08-16T05:53:27.157Z,99.90
2017-08-16T05:55:56.208Z,99.90
2017-08-16T05:58:24.813Z,99.90
2017-08-16T06:00:53.138Z,99.90
2017-08-16T06:03:21.532Z,99.90
2017-08-16T06:05:51.370Z,99.90
2017-08-16T06:08:19.676Z,99.90
2017-08-16T06:10:48.752Z,99.90
2017-08-16T06:13:17.186Z,99.90
2017-08-16T06:15:46.245Z,99.90
2017-08-16T06:18:14.900Z,99.90
2017-08-16T06:20:43.955Z,99.90
2017-08-16T06:23:12.286Z,99.90
2017-08-16T06:25:40.600Z,99.90
2017-08-16T06:28:09.618Z,99.90
2017-08-16T06:30:38.218Z,99.90
2017-08-16T06:33:06.537Z,99.90
2017-08-16T06:35:34.808Z,99.90
2017-08-16T06:38:03.134Z,99.90
2017-08-16T06:40:31.446Z,99.90
2017-08-16T06:43:00.036Z,99.90
2017-08-16T06:45:28.365Z,99.90
2017-08-16T06:47:57.202Z,99.90
2017-08-16T06:50:25.796Z,99.90
2017-08-16T06:52:54.080Z,99.90
2017-08-16T06:55:22.357Z,99.90
2017-08-16T06:57:51.376Z,99.90
2017-08-16T07:00:22.023Z,99.90
2017-08-16T07:02:51.437Z,99.90
2017-08-16T07:05:20.475Z,99.90
2017-08-16T07:07:49.295Z,99.90
2017-08-16T07:10:18.613Z,99.90
2017-08-16T07:12:47.258Z,99.90
2017-08-16T07:15:15.990Z,99.90
2017-08-16T07:17:44.694Z,99.90
2017-08-16T07:20:13.764Z,99.90
2017-08-16T07:22:42.066Z,99.90
2017-08-16T07:25:11.144Z,99.90
2017-08-16T07:27:39.452Z,99.90
2017-08-16T07:30:08.102Z,99.90
2017-08-16T07:32:37.028Z,99.90
2017-08-16T07:35:05.372Z,99.90
2017-08-16T07:37:33.671Z,99.90
2017-08-16T07:40:02.018Z,99.90
2017-08-16T07:42:30.691Z,99.90
2017-08-16T07:45:01.076Z,99.90
2017-08-16T07:47:29.927Z,99.90
2017-08-16T07:50:00.087Z,99.90
2017-08-16T07:52:28.388Z,99.90
2017-08-16T07:54:57.293Z,99.90
2017-08-16T07:57:26.357Z,99.90
2017-08-16T07:59:54.712Z,99.90
2017-08-16T08:02:23.318Z,99.90
2017-08-16T08:04:51.837Z,99.90
2017-08-16T08:07:20.252Z,99.90
2017-08-16T08:09:49.134Z,99.90
2017-08-16T08:12:18.194Z,99.90
2017-08-16T08:14:46.784Z,99.90
2017-08-16T08:17:15.373Z,99.90
2017-08-16T08:19:43.694Z,99.90
2017-08-16T08:22:12.762Z,99.90
2017-08-16T08:24:41.046Z,99.90
2017-08-16T08:27:10.135Z,99.90
2017-08-16T08:29:39.246Z,99.90
2017-08-16T08:32:07.539Z,99.90
2017-08-16T08:34:35.865Z,99.90
2017-08-16T08:37:04.189Z,99.90
2017-08-16T08:39:32.777Z,99.90
2017-08-16T08:42:01.091Z,99.90
2017-08-16T08:44:30.882Z,99.90
2017-08-16T08:46:59.197Z,99.90
2017-08-16T08:49:27.514Z,99.90
2017-08-16T08:51:56.133Z,99.90
2017-08-16T08:54:24.434Z,99.90
2017-08-16T08:56:52.728Z,99.90
2017-08-16T08:59:21.795Z,99.90
2017-08-16T09:01:50.102Z,99.90
2017-08-16T09:04:19.477Z,99.90
2017-08-16T09:06:47.885Z,99.90
2017-08-16T09:09:17.125Z,99.90
2017-08-16T09:11:45.757Z,99.90
2017-08-16T09:14:14.124Z,99.90
2017-08-16T09:16:42.788Z,99.90
2017-08-16T09:19:11.159Z,99.90
2017-08-16T09:21:39.492Z,99.90
2017-08-16T09:24:08.204Z,99.90
2017-08-16T09:26:37.270Z,99.90
2017-08-16T09:29:05.592Z,99.90
2017-08-16T09:31:34.734Z,99.90
2017-08-16T09:34:03.027Z,99.90
2017-08-16T09:36:31.637Z,99.90
2017-08-16T09:39:00.664Z,99.90
2017-08-16T09:41:29.711Z,99.90
2017-08-16T09:43:58.316Z,99.90
2017-08-16T09:46:26.822Z,99.90
2017-08-16T09:48:55.113Z,99.90
2017-08-16T09:51:24.610Z,99.90
2017-08-16T09:53:52.893Z,99.90
2017-08-16T09:56:21.853Z,99.90
2017-08-16T09:58:50.154Z,99.90
2017-08-16T10:01:18.815Z,99.90
2017-08-16T10:03:47.119Z,99.90
2017-08-16T10:06:15.424Z,99.90
2017-08-16T10:08:44.109Z,99.90
2017-08-16T10:11:13.333Z,99.90
2017-08-16T10:13:42.442Z,99.90
2017-08-16T10:16:11.521Z,99.90
2017-08-16T10:18:39.822Z,99.90
2017-08-16T10:21:09.225Z,99.90
2017-08-16T10:23:37.494Z,99.90
2017-08-16T10:26:06.763Z,99.90
2017-08-16T10:28:35.360Z,99.90
2017-08-16T10:31:03.890Z,99.90
2017-08-16T10:33:32.969Z,99.90
2017-08-16T10:36:01.653Z,99.90
2017-08-16T10:38:29.945Z,99.90
2017-08-16T10:40:59.274Z,99.90
2017-08-16T10:43:28.177Z,99.90
2017-08-16T10:45:56.466Z,99.90
2017-08-16T10:48:25.087Z,99.90
2017-08-16T10:50:53.410Z,99.90
2017-08-16T10:53:22.501Z,99.90
2017-08-16T10:55:50.843Z,99.90
2017-08-16T10:58:19.722Z,99.90
2017-08-16T11:00:48.386Z,99.90
2017-08-16T11:03:17.544Z,99.90
2017-08-16T11:05:45.896Z,99.90
2017-08-16T11:08:15.130Z,99.90
2017-08-16T11:10:43.443Z,99.90
2017-08-16T11:13:14.371Z,99.90
2017-08-16T11:15:42.697Z,99.90
2017-08-16T11:18:11.706Z,99.90
2017-08-16T11:20:40.028Z,99.90
2017-08-16T11:23:08.515Z,99.90
2017-08-16T11:25:36.802Z,99.90
2017-08-16T11:28:05.162Z,99.90
2017-08-16T11:30:33.557Z,98.80
2017-08-16T11:33:02.126Z,97.70
2017-08-16T11:35:30.417Z,95.80
2017-08-16T11:37:58.714Z,91.90
2017-08-16T11:40:27.046Z,92.30
2017-08-16T11:42:55.993Z,94.90
2017-08-16T11:45:24.591Z,95.30
2017-08-16T11:47:53.174Z,96.90
2017-08-16T11:50:21.472Z,96.70
2017-08-16T11:55:22.027Z,98.40
2017-08-16T11:57:51.417Z,93.70
2017-08-16T12:00:19.701Z,93.70
2017-08-16T12:02:48.029Z,92.10
2017-08-16T12:05:16.682Z,91.30
2017-08-16T12:07:45.739Z,93.90
2017-08-16T12:10:14.129Z,93.60
2017-08-16T12:12:42.559Z,92.70
2017-08-16T12:15:11.929Z,92.10
2017-08-16T12:17:40.555Z,91.70
2017-08-16T12:20:09.631Z,88.80
2017-08-16T12:22:37.929Z,87.90
2017-08-16T12:25:06.217Z,83.20
2017-08-16T12:27:35.593Z,85.10
2017-08-16T12:30:04.649Z,85.00
2017-08-16T12:32:32.964Z,83.80
2017-08-16T12:35:01.374Z,78.70
2017-08-16T12:37:30.583Z,80.00
2017-08-16T12:40:00.212Z,83.90
2017-08-16T12:42:29.411Z,83.80
2017-08-16T12:44:57.744Z,86.60
2017-08-16T12:47:26.798Z,90.40
2017-08-16T12:49:55.120Z,87.40
2017-08-16T12:52:24.950Z,65.80
2017-08-16T12:54:53.258Z,66.30
2017-08-16T12:57:22.338Z,67.50
2017-08-16T12:59:50.668Z,64.20
2017-08-16T13:02:20.122Z,48.90
2017-08-16T13:04:49.833Z,48.50
2017-08-16T13:07:19.271Z,51.70
2017-08-16T13:09:47.561Z,52.20
2017-08-16T13:12:16.645Z,57.60
2017-08-16T13:14:44.985Z,57.60
2017-08-16T13:17:13.603Z,59.40
2017-08-16T13:19:41.915Z,59.70
2017-08-16T13:22:10.964Z,66.60
2017-08-16T13:24:39.293Z,66.40
2017-08-16T13:27:08.722Z,74.50
2017-08-16T13:29:37.362Z,74.50
2017-08-16T13:32:05.984Z,78.40
2017-08-16T13:34:35.066Z,80.00
2017-08-16T13:37:03.418Z,80.00
2017-08-16T13:39:32.356Z,79.30
2017-08-16T13:42:02.780Z,64.20
2017-08-16T13:44:31.092Z,64.80
2017-08-16T13:46:59.398Z,59.60
2017-08-16T13:49:27.983Z,53.60
2017-08-16T13:51:56.303Z,50.60
2017-08-16T13:54:25.004Z,52.10
2017-08-16T13:56:53.404Z,50.60
2017-08-16T13:59:22.563Z,49.90
2017-08-16T14:01:50.970Z,49.90
2017-08-16T14:04:19.272Z,48.30
2017-08-16T14:06:49.587Z,46.20
2017-08-16T14:09:18.369Z,45.60
2017-08-16T14:11:46.689Z,47.90
2017-08-16T14:14:15.029Z,48.80
2017-08-16T14:16:43.761Z,47.30
2017-08-16T14:19:13.567Z,47.70
2017-08-16T14:21:41.850Z,50.40
2017-08-16T14:24:10.884Z,58.50
2017-08-16T14:26:39.482Z,57.80
2017-08-16T14:29:08.693Z,59.80
2017-08-16T14:31:38.125Z,59.60
2017-08-16T14:34:07.911Z,54.30
2017-08-16T14:36:36.307Z,54.70
2017-08-16T14:39:04.840Z,51.40
2017-08-16T14:44:02.720Z,53.80
2017-08-16T14:46:31.006Z,55.80
2017-08-16T14:49:00.460Z,66.30
2017-08-16T14:51:30.898Z,50.40
2017-08-16T14:53:59.209Z,50.90
2017-08-16T14:56:27.528Z,51.00
2017-08-16T14:58:57.137Z,56.80
2017-08-16T15:01:27.037Z,59.00
2017-08-16T15:03:55.718Z,55.50
2017-08-16T15:06:25.433Z,61.10
2017-08-16T15:08:53.732Z,61.80
2017-08-16T15:11:22.061Z,65.20
2017-08-16T15:13:50.414Z,67.20
2017-08-16T15:16:19.065Z,68.70
2017-08-16T15:18:47.855Z,69.20
2017-08-16T15:21:16.154Z,70.30
2017-08-16T15:23:44.807Z,69.60
2017-08-16T15:26:13.144Z,67.70
2017-08-16T15:28:41.770Z,66.70
2017-08-16T15:31:10.072Z,66.30
2017-08-16T15:33:39.525Z,69.50
2017-08-16T15:36:08.201Z,70.30
2017-08-16T15:38:37.272Z,73.70
2017-08-16T15:41:05.576Z,72.60
2017-08-16T15:43:34.686Z,74.10
2017-08-16T15:46:03.020Z,74.10
2017-08-16T15:48:31.623Z,75.80
2017-08-16T15:51:01.454Z,78.80
2017-08-16T15:53:30.884Z,76.50
2017-08-16T15:55:59.481Z,77.20
2017-08-16T15:58:27.784Z,77.70
2017-08-16T16:00:56.082Z,78.30
2017-08-16T16:03:24.385Z,74.40
2017-08-16T16:05:52.760Z,73.60
2017-08-16T16:08:21.454Z,72.30
2017-08-16T16:10:50.014Z,70.90
2017-08-16T16:13:18.319Z,70.60
2017-08-16T16:15:46.631Z,69.60
2017-08-16T16:18:16.566Z,70.40
2017-08-16T16:20:45.109Z,70.40
2017-08-16T16:23:13.398Z,71.10
2017-08-16T16:25:42.396Z,71.70
2017-08-16T16:28:10.719Z,72.50
2017-08-16T16:30:39.013Z,72.00
2017-08-16T16:33:07.657Z,72.00
2017-08-16T16:35:36.025Z,73.40
2017-08-16T16:38:04.297Z,74.70
2017-08-16T16:40:32.601Z,74.30
2017-08-16T16:43:01.083Z,75.50
2017-08-16T16:45:29.706Z,75.90
2017-08-16T16:47:58.205Z,75.60
2017-08-16T16:50:26.526Z,75.50
2017-08-16T16:52:55.332Z,76.20
2017-08-16T16:55:23.639Z,76.40
2017-08-16T16:57:52.699Z,77.70
2017-08-16T17:00:21.804Z,77.70
2017-08-16T17:02:50.099Z,78.20
2017-08-16T17:05:18.803Z,80.30
2017-08-16T17:07:47.073Z,81.00
2017-08-16T17:10:15.355Z,79.30
2017-08-16T17:12:44.450Z,79.40
2017-08-16T17:15:12.802Z,79.90
2017-08-16T17:17:41.416Z,80.40
2017-08-16T17:20:10.426Z,80.00
2017-08-16T17:22:39.236Z,80.80
2017-08-16T17:25:08.619Z,82.90
2017-08-16T17:27:36.913Z,82.80
2017-08-16T17:30:05.969Z,84.60
2017-08-16T17:32:34.279Z,84.60
2017-08-16T17:35:02.594Z,85.50
2017-08-16T17:37:31.652Z,86.30
2017-08-16T17:40:00.224Z,86.30
2017-08-16T17:42:28.501Z,87.40
2017-08-16T17:44:56.847Z,88.50
2017-08-16T17:47:26.208Z,88.50
2017-08-16T17:49:54.514Z,88.40
2017-08-16T17:52:22.799Z,90.30
2017-08-16T17:54:52.705Z,91.60
2017-08-16T17:57:21.004Z,91.60
2017-08-16T17:59:49.321Z,92.20
2017-08-16T18:02:17.625Z,93.00
2017-08-16T18:04:45.911Z,93.10
2017-08-16T18:07:14.530Z,92.80
2017-08-16T18:09:42.841Z,94.50
2017-08-16T18:12:11.129Z,94.60
2017-08-16T18:14:39.735Z,95.10
2017-08-16T18:17:08.027Z,95.70
2017-08-16T18:19:36.343Z,95.70
2017-08-16T18:22:05.941Z,94.60
2017-08-16T18:24:34.414Z,96.20
2017-08-16T18:27:03.305Z,95.50
2017-08-16T18:29:31.922Z,96.00
2017-08-16T18:32:00.237Z,98.90
2017-08-16T18:34:29.245Z,99.20
2017-08-16T18:36:57.815Z,99.90
2017-08-16T18:39:26.270Z,99.90
2017-08-16T18:41:54.607Z,99.90
2017-08-16T18:44:23.241Z,99.90
2017-08-16T18:46:51.579Z,99.90
2017-08-16T18:49:20.154Z,99.90
2017-08-16T18:51:48.456Z,99.90
2017-08-16T18:54:16.739Z,99.90
2017-08-16T18:56:45.343Z,99.90
2017-08-16T18:59:13.693Z,99.90
2017-08-16T19:01:41.996Z,99.90
2017-08-16T19:04:10.366Z,99.90
2017-08-16T19:06:38.673Z,99.90
2017-08-16T19:09:07.269Z,99.90
2017-08-16T19:11:35.663Z,99.90
2017-08-16T19:14:04.484Z,99.90
2017-08-16T19:16:34.046Z,99.90
2017-08-16T19:19:02.381Z,99.90
2017-08-16T19:21:31.738Z,99.90
2017-08-16T19:24:00.051Z,99.90
2017-08-16T19:26:29.132Z,99.90
2017-08-16T19:28:57.720Z,99.90
2017-08-16T19:31:26.052Z,99.90
2017-08-16T19:33:54.357Z,99.90
2017-08-16T19:36:22.999Z,99.90
2017-08-16T19:38:53.632Z,99.90
2017-08-16T19:41:22.689Z,99.90
2017-08-16T19:43:51.910Z,99.90
2017-08-16T19:46:20.202Z,99.90
2017-08-16T19:48:49.123Z,99.90
2017-08-16T19:51:18.748Z,99.90
2017-08-16T19:53:47.052Z,99.90
2017-08-16T19:56:15.352Z,99.90
2017-08-16T19:58:44.045Z,99.90
2017-08-16T20:01:12.382Z,99.90
2017-08-16T20:03:40.691Z,99.90
2017-08-16T20:06:08.977Z,99.90
2017-08-16T20:08:37.264Z,99.90
2017-08-16T20:11:05.836Z,99.90
2017-08-16T20:13:34.174Z,99.90
2017-08-16T20:16:02.492Z,99.90
2017-08-16T20:18:31.123Z,99.90
2017-08-16T20:20:59.420Z,99.90
2017-08-16T20:23:27.746Z,99.90
2017-08-16T20:25:56.391Z,99.90
2017-08-16T20:28:25.485Z,99.90
2017-08-16T20:30:53.830Z,99.90
2017-08-16T20:33:22.439Z,99.90
2017-08-16T20:35:50.807Z,99.90
2017-08-16T20:38:19.111Z,99.90
2017-08-16T20:40:47.413Z,99.90
2017-08-16T20:43:16.506Z,99.90
2017-08-16T20:45:45.174Z,99.90
2017-08-16T20:48:13.501Z,99.90
2017-08-16T20:50:42.586Z,99.90
2017-08-16T20:53:10.909Z,99.90
2017-08-16T20:55:39.204Z,99.90
2017-08-16T20:58:07.821Z,99.90
2017-08-16T21:00:36.127Z,99.90
2017-08-16T21:03:05.195Z,99.90
2017-08-16T21:05:33.808Z,99.90
2017-08-16T21:08:02.111Z,99.90
2017-08-16T21:10:31.192Z,99.90
2017-08-16T21:12:59.512Z,99.90
2017-08-16T21:15:27.836Z,99.90
2017-08-16T21:17:56.560Z,99.90
2017-08-16T21:20:25.655Z,99.90
2017-08-16T21:22:53.959Z,99.90
2017-08-16T21:25:22.279Z,99.90
2017-08-16T21:27:50.579Z,99.90
2017-08-16T21:30:19.266Z,99.90
2017-08-16T21:32:47.591Z,99.90
2017-08-16T21:35:16.705Z,99.90
2017-08-16T21:37:45.344Z,99.90
2017-08-16T21:40:13.675Z,99.90
2017-08-16T21:42:41.981Z,99.90
2017-08-16T21:45:10.608Z,99.90
2017-08-16T21:47:39.700Z,99.90
2017-08-16T21:50:08.028Z,99.90
2017-08-16T21:52:36.677Z,99.90
2017-08-16T21:55:04.953Z,99.90
2017-08-16T21:57:33.251Z,99.90
2017-08-16T22:00:02.618Z,99.90
2017-08-16T22:02:30.919Z,99.90
2017-08-16T22:04:59.236Z,99.90
2017-08-16T22:07:27.893Z,99.90
2017-08-16T22:09:56.203Z,99.90
2017-08-16T22:12:25.318Z,99.90
2017-08-16T22:14:54.441Z,99.90
2017-08-16T22:17:22.756Z,99.90
2017-08-16T22:19:51.341Z,99.90
2017-08-16T22:22:19.651Z,99.90
2017-08-16T22:24:48.730Z,99.90
2017-08-16T22:27:17.303Z,99.90
2017-08-16T22:29:45.680Z,99.90
2017-08-16T22:32:13.997Z,99.90
2017-08-16T22:34:43.384Z,99.90
2017-08-16T22:37:11.672Z,99.90
2017-08-16T22:39:40.008Z,99.90
2017-08-16T22:42:08.645Z,99.90
2017-08-16T22:44:36.941Z,99.90
2017-08-16T22:47:06.020Z,99.90
2017-08-16T22:49:34.709Z,99.90
2017-08-16T22:52:03.001Z,99.90
2017-08-16T22:54:32.079Z,99.90
2017-08-16T22:57:00.394Z,99.90
2017-08-16T22:59:28.709Z,99.90
2017-08-16T23:01:57.055Z,99.90
2017-08-16T23:04:26.229Z,99.90
2017-08-16T23:06:54.828Z,99.90
2017-08-16T23:09:23.158Z,99.90
2017-08-16T23:11:51.505Z,99.90
2017-08-16T23:14:20.228Z,99.90
2017-08-16T23:16:48.581Z,99.90
2017-08-16T23:19:18.053Z,99.90
2017-08-16T23:21:46.421Z,99.90
2017-08-16T23:24:14.700Z,99.90
2017-08-16T23:26:43.667Z,99.90
2017-08-16T23:29:12.748Z,99.90
2017-08-16T23:31:41.072Z,99.90
2017-08-16T23:34:09.408Z,99.90
2017-08-16T23:36:37.696Z,99.90
2017-08-16T23:39:07.107Z,99.90
2017-08-16T23:41:35.486Z,99.90
2017-08-16T23:44:03.845Z,99.90
2017-08-16T23:46:32.132Z,99.90
2017-08-16T23:49:00.450Z,99.90
2017-08-16T23:51:30.134Z,99.90
2017-08-16T23:53:58.525Z,99.90
2017-08-16T23:56:26.846Z,99.90
2017-08-16T23:58:55.149Z,99.90
